createdAt,value
2023-04-14T00:02:14.311Z,0.60
2023-04-14T00:04:41.553Z,0.57
2023-04-14T00:07:08.639Z,0.45
2023-04-14T00:09:35.601Z,0.95
2023-04-14T00:12:02.658Z,0.45
2023-04-14T00:14:29.610Z,0.80
2023-04-14T00:16:56.593Z,1.35
2023-04-14T00:19:23.601Z,0.75
2023-04-14T00:21:50.918Z,0.90
2023-04-14T00:24:17.836Z,0.73
2023-04-14T00:26:44.793Z,0.60
2023-04-14T00:29:11.795Z,0.60
2023-04-14T00:31:38.812Z,0.60
2023-04-14T00:34:06.027Z,0.47
2023-04-14T00:36:33.058Z,0.65
2023-04-14T00:39:01.206Z,0.50
2023-04-14T00:41:36.806Z,0.52
2023-04-14T00:44:03.774Z,1.00
2023-04-14T00:46:31.369Z,0.75
2023-04-14T00:48:58.533Z,0.60
2023-04-14T00:51:27.261Z,0.90
2023-04-14T00:53:55.510Z,0.60
2023-04-14T00:56:26.402Z,0.75
2023-04-14T00:58:53.969Z,0.63
2023-04-14T01:01:21.061Z,0.68
2023-04-14T01:03:48.537Z,0.80
2023-04-14T01:06:15.581Z,0.50
2023-04-14T01:08:42.536Z,0.73
2023-04-14T01:11:32.323Z,0.60
2023-04-14T01:14:24.037Z,1.10
2023-04-14T01:16:55.266Z,1.40
2023-04-14T01:19:25.194Z,0.57
2023-04-14T01:21:57.906Z,0.60
2023-04-14T01:25:15.879Z,0.70
2023-04-14T01:28:14.232Z,0.90
2023-04-14T01:31:08.621Z,1.13
2023-04-14T01:33:40.608Z,0.57
2023-04-14T01:36:13.958Z,0.70
2023-04-14T01:38:42.410Z,0.45
2023-04-14T01:41:12.436Z,0.70
2023-04-14T01:43:44.514Z,1.35
2023-04-14T01:46:16.041Z,0.73
2023-04-14T01:48:44.064Z,0.52
2023-04-14T01:51:13.898Z,0.80
2023-04-14T01:53:43.850Z,0.70
2023-04-14T01:56:13.123Z,0.70
2023-04-14T01:58:41.956Z,1.77
2023-04-14T02:01:10.151Z,0.73
2023-04-14T02:03:38.324Z,1.10
2023-04-14T02:06:06.519Z,0.63
2023-04-14T02:08:36.283Z,1.45
2023-04-14T02:11:04.997Z,0.57
2023-04-14T02:13:33.173Z,0.73
2023-04-14T02:16:02.071Z,0.60
2023-04-14T02:18:31.571Z,0.65
2023-04-14T02:21:01.470Z,0.70
2023-04-14T02:23:28.819Z,1.25
2023-04-14T02:26:05.673Z,1.15
2023-04-14T02:28:37.682Z,0.65
2023-04-14T02:31:10.287Z,0.60
2023-04-14T02:33:39.468Z,1.05
2023-04-14T02:36:11.977Z,0.60
2023-04-14T02:39:03.641Z,0.77
2023-04-14T02:41:33.562Z,0.90
2023-04-14T02:44:49.202Z,0.75
2023-04-14T02:47:31.160Z,1.30
2023-04-14T02:50:03.087Z,1.00
2023-04-14T02:52:32.938Z,1.00
2023-04-14T02:55:02.444Z,0.98
2023-04-14T02:57:30.337Z,1.05
2023-04-14T02:59:58.819Z,0.90
2023-04-14T03:02:27.949Z,1.10
2023-04-14T03:05:07.396Z,1.02
2023-04-14T03:07:47.612Z,0.70
2023-04-14T03:10:17.011Z,0.82
2023-04-14T03:12:47.252Z,1.08
2023-04-14T03:15:16.304Z,1.30
2023-04-14T03:17:48.676Z,1.02
2023-04-14T03:20:20.098Z,1.10
2023-04-14T03:22:49.980Z,1.20
2023-04-14T03:25:17.005Z,1.13
2023-04-14T03:27:48.482Z,1.33
2023-04-14T03:30:17.098Z,1.38
2023-04-14T03:32:46.956Z,0.90
2023-04-14T03:35:15.629Z,1.20
2023-04-14T03:37:44.839Z,1.17
2023-04-14T03:40:14.702Z,2.70
2023-04-14T03:42:46.198Z,1.92
2023-04-14T03:45:18.168Z,1.50
2023-04-14T03:47:45.761Z,1.10
2023-04-14T03:50:15.481Z,1.08
2023-04-14T03:52:44.933Z,1.30
2023-04-14T03:55:13.880Z,1.70
2023-04-14T03:57:43.988Z,1.60
2023-04-14T04:00:15.903Z,1.38
2023-04-14T04:02:46.678Z,1.20
2023-04-14T04:05:14.555Z,1.77
2023-04-14T04:07:44.718Z,1.33
2023-04-14T04:10:13.469Z,1.33
2023-04-14T04:12:47.387Z,1.15
2023-04-14T04:15:15.637Z,1.45
2023-04-14T04:17:43.482Z,1.27
2023-04-14T04:20:15.976Z,1.88
2023-04-14T04:22:46.279Z,1.50
2023-04-14T04:25:14.241Z,1.17
2023-04-14T04:27:49.773Z,1.05
2023-04-14T04:30:20.348Z,0.95
2023-04-14T04:32:48.506Z,1.40
2023-04-14T04:35:17.331Z,1.20
2023-04-14T04:37:47.315Z,1.38
2023-04-14T04:40:14.485Z,1.40
2023-04-14T04:42:43.170Z,1.42
2023-04-14T04:45:13.346Z,1.48
2023-04-14T04:47:41.878Z,1.45
2023-04-14T04:50:09.085Z,1.30
2023-04-14T04:52:36.051Z,1.70
2023-04-14T04:55:03.156Z,1.65
2023-04-14T04:57:30.106Z,1.80
2023-04-14T04:59:57.397Z,2.13
2023-04-14T05:02:24.837Z,2.40
2023-04-14T05:04:52.699Z,1.75
2023-04-14T05:07:19.833Z,2.08
2023-04-14T05:09:46.747Z,2.53
2023-04-14T05:12:13.856Z,3.22
2023-04-14T05:14:41.049Z,2.60
2023-04-14T05:17:08.006Z,2.30
2023-04-14T05:19:34.926Z,1.88
2023-04-14T05:22:02.081Z,2.00
2023-04-14T05:24:29.065Z,2.10
2023-04-14T05:27:13.081Z,2.08
2023-04-14T05:29:41.226Z,2.00
2023-04-14T05:32:08.588Z,1.88
2023-04-14T05:34:35.724Z,2.42
2023-04-14T05:37:03.109Z,2.35
2023-04-14T05:39:30.138Z,2.70
2023-04-14T05:41:57.099Z,2.88
2023-04-14T05:44:24.382Z,2.63
2023-04-14T05:46:51.736Z,3.50
2023-04-14T05:49:18.767Z,2.47
2023-04-14T05:51:45.910Z,2.42
2023-04-14T05:54:12.907Z,2.47
2023-04-14T05:56:39.886Z,1.98
2023-04-14T05:59:06.779Z,2.17
2023-04-14T06:01:33.765Z,2.40
2023-04-14T06:04:02.575Z,2.08
2023-04-14T06:06:32.488Z,2.00
2023-04-14T06:08:59.757Z,3.05
2023-04-14T06:11:26.820Z,2.42
2023-04-14T06:13:53.816Z,2.45
2023-04-14T06:16:20.754Z,2.58
2023-04-14T06:18:47.698Z,2.30
2023-04-14T06:21:14.591Z,2.60
2023-04-14T06:23:41.506Z,2.25
2023-04-14T06:26:08.788Z,2.70
2023-04-14T06:28:35.772Z,2.50
2023-04-14T06:31:02.785Z,2.33
2023-04-14T06:33:29.755Z,2.83
2023-04-14T06:35:56.921Z,3.75
2023-04-14T06:38:25.179Z,3.65
2023-04-14T06:40:53.337Z,4.13
2023-04-14T06:43:20.472Z,4.13
2023-04-14T06:45:47.422Z,3.97
2023-04-14T06:48:15.585Z,4.18
2023-04-14T06:50:44.174Z,4.65
2023-04-14T06:53:11.390Z,4.10
2023-04-14T06:55:42.186Z,4.22
2023-04-14T06:58:09.235Z,4.43
2023-04-14T07:00:36.187Z,3.70
2023-04-14T07:03:03.236Z,3.92
2023-04-14T07:05:30.543Z,3.42
2023-04-14T07:07:57.453Z,3.25
2023-04-14T07:10:24.327Z,3.70
2023-04-14T07:12:51.274Z,3.40
2023-04-14T07:15:18.499Z,3.63
2023-04-14T07:17:45.560Z,3.50
2023-04-14T07:20:12.715Z,4.22
2023-04-14T07:22:39.694Z,3.60
2023-04-14T07:25:06.923Z,4.03
2023-04-14T07:27:33.930Z,4.53
2023-04-14T07:30:00.934Z,4.35
2023-04-14T07:32:28.091Z,4.70
2023-04-14T07:34:55.881Z,4.18
2023-04-14T07:37:24.600Z,3.53
2023-04-14T07:39:51.548Z,4.00
2023-04-14T07:42:18.591Z,4.72
2023-04-14T07:44:45.517Z,4.63
2023-04-14T07:47:12.507Z,4.10
2023-04-14T07:49:39.443Z,4.15
2023-04-14T07:52:06.411Z,3.53
2023-04-14T07:54:33.323Z,3.38
2023-04-14T07:57:00.724Z,4.53
2023-04-14T07:59:27.684Z,3.20
2023-04-14T08:01:54.799Z,2.83
2023-04-14T08:04:22.165Z,3.00
2023-04-14T08:06:49.180Z,4.28
2023-04-14T08:09:17.213Z,1.90
2023-04-14T08:11:44.175Z,3.20
2023-04-14T08:14:11.593Z,2.83
2023-04-14T08:16:38.741Z,2.00
2023-04-14T08:19:06.251Z,1.92
2023-04-14T08:21:33.350Z,1.75
2023-04-14T08:24:00.382Z,1.25
2023-04-14T08:26:29.986Z,1.60
2023-04-14T08:28:56.950Z,2.10
2023-04-14T08:31:25.575Z,1.40
2023-04-14T08:33:53.024Z,1.10
2023-04-14T08:36:20.583Z,1.02
2023-04-14T08:38:47.613Z,1.58
2023-04-14T08:41:17.601Z,1.27
2023-04-14T08:43:45.122Z,1.30
2023-04-14T08:46:14.154Z,1.27
2023-04-14T08:48:42.176Z,1.35
2023-04-14T08:51:38.713Z,1.10
2023-04-14T08:54:11.092Z,0.85
2023-04-14T08:56:43.084Z,0.98
2023-04-14T08:59:11.279Z,0.90
2023-04-14T09:01:39.695Z,1.20
2023-04-14T09:04:08.386Z,1.65
2023-04-14T09:06:36.429Z,0.88
2023-04-14T09:09:07.577Z,1.10
2023-04-14T09:11:35.269Z,0.85
2023-04-14T09:14:02.695Z,1.58
2023-04-14T09:16:31.938Z,1.20
2023-04-14T09:19:06.415Z,1.45
2023-04-14T09:21:53.241Z,1.35
2023-04-14T09:24:31.744Z,1.38
2023-04-14T09:27:05.305Z,0.98
2023-04-14T09:29:33.228Z,1.20
2023-04-14T09:32:00.446Z,1.13
2023-04-14T09:34:28.314Z,1.30
2023-04-14T09:37:08.012Z,0.80
2023-04-14T09:39:36.762Z,2.15
2023-04-14T09:42:04.535Z,1.10
2023-04-14T09:44:31.527Z,1.00
2023-04-14T09:47:07.472Z,0.65
2023-04-14T09:49:34.676Z,0.90
2023-04-14T09:52:08.461Z,1.20
2023-04-14T09:54:36.221Z,1.25
2023-04-14T09:57:04.001Z,0.60
2023-04-14T09:59:34.356Z,0.60
2023-04-14T10:02:07.513Z,0.60
2023-04-14T10:04:35.225Z,0.98
2023-04-14T10:07:02.807Z,0.85
2023-04-14T10:09:30.980Z,0.85
2023-04-14T10:12:13.344Z,1.00
2023-04-14T10:14:44.358Z,0.75
2023-04-14T10:17:11.922Z,1.00
2023-04-14T10:19:39.226Z,0.77
2023-04-14T10:22:06.897Z,0.70
2023-04-14T10:24:34.324Z,0.63
2023-04-14T10:27:04.846Z,0.65
2023-04-14T10:29:32.145Z,0.73
2023-04-14T10:32:05.558Z,1.83
2023-04-14T10:34:33.576Z,0.77
2023-04-14T10:37:14.539Z,0.60
2023-04-14T10:39:42.745Z,0.40
2023-04-14T10:42:10.037Z,0.30
2023-04-14T10:44:37.368Z,0.90
2023-04-14T10:47:08.426Z,0.63
2023-04-14T10:49:38.216Z,0.77
2023-04-14T10:52:06.660Z,1.00
2023-04-14T10:54:53.244Z,0.90
2023-04-14T10:57:28.474Z,0.70
2023-04-14T10:59:58.685Z,0.50
2023-04-14T11:02:26.668Z,1.15
2023-04-14T11:05:06.827Z,0.50
2023-04-14T11:07:45.607Z,0.80
2023-04-14T11:10:21.578Z,0.85
2023-04-14T11:12:55.458Z,0.60
2023-04-14T11:15:22.531Z,0.65
2023-04-14T11:17:50.004Z,0.75
2023-04-14T11:20:24.060Z,0.50
2023-04-14T11:22:53.097Z,1.00
2023-04-14T11:25:24.408Z,1.00
2023-04-14T11:27:52.671Z,0.80
2023-04-14T11:30:21.564Z,1.45
2023-04-14T11:32:51.672Z,2.00
2023-04-14T11:35:20.781Z,0.90
2023-04-14T11:37:47.694Z,1.30
2023-04-14T11:40:16.094Z,1.17
2023-04-14T11:42:51.076Z,1.10
2023-04-14T11:45:18.360Z,0.75
2023-04-14T11:48:01.025Z,1.00
2023-04-14T11:50:32.583Z,1.33
2023-04-14T11:53:07.656Z,1.13
2023-04-14T11:55:34.908Z,2.35
2023-04-14T11:58:02.513Z,1.17
2023-04-14T12:00:29.718Z,1.30
2023-04-14T12:02:57.508Z,2.45
2023-04-14T12:05:31.220Z,0.80
2023-04-14T12:08:01.090Z,1.33
2023-04-14T12:10:28.777Z,1.13
2023-04-14T12:13:07.038Z,0.93
2023-04-14T12:15:39.336Z,1.15
2023-04-14T12:18:14.165Z,2.53
2023-04-14T12:20:56.293Z,0.98
2023-04-14T12:23:23.702Z,1.45
2023-04-14T12:25:51.940Z,2.55
2023-04-14T12:28:25.001Z,1.02
2023-04-14T12:30:54.330Z,1.60
2023-04-14T12:33:25.000Z,1.35
2023-04-14T12:35:52.530Z,1.50
2023-04-14T12:38:19.780Z,1.10
2023-04-14T12:40:47.979Z,1.10
2023-04-14T12:43:18.222Z,1.00
2023-04-14T12:45:48.984Z,1.45
2023-04-14T12:48:17.699Z,0.93
2023-04-14T12:50:45.204Z,1.00
2023-04-14T12:53:29.640Z,1.40
2023-04-14T12:56:22.132Z,0.68
2023-04-14T12:58:49.549Z,0.93
2023-04-14T13:01:19.385Z,0.90
2023-04-14T13:03:55.804Z,1.08
2023-04-14T13:06:24.845Z,1.27
2023-04-14T13:08:53.653Z,1.30
2023-04-14T13:11:23.532Z,1.05
2023-04-14T13:13:52.377Z,0.77
2023-04-14T13:16:20.369Z,1.23
2023-04-14T13:18:48.839Z,1.00
2023-04-14T13:21:16.768Z,1.52
2023-04-14T13:23:44.032Z,0.60
2023-04-14T13:26:11.812Z,1.20
2023-04-14T13:28:38.795Z,0.85
2023-04-14T13:31:05.947Z,2.10
2023-04-14T13:33:33.533Z,1.08
2023-04-14T13:36:02.982Z,1.65
2023-04-14T13:38:30.905Z,1.08
2023-04-14T13:40:58.062Z,1.17
2023-04-14T13:43:25.039Z,0.80
2023-04-14T13:45:52.963Z,1.17
2023-04-14T13:48:20.319Z,1.20
2023-04-14T13:50:47.484Z,0.80
2023-04-14T13:53:14.553Z,1.42
2023-04-14T13:55:41.947Z,0.85
2023-04-14T13:58:09.221Z,0.90
2023-04-14T14:00:36.297Z,1.20
2023-04-14T14:03:03.560Z,1.48
2023-04-14T14:05:30.777Z,1.30
2023-04-14T14:07:57.972Z,1.00
2023-04-14T14:10:25.007Z,1.20
2023-04-14T14:12:52.001Z,1.27
2023-04-14T14:15:19.196Z,1.35
2023-04-14T14:17:46.255Z,1.33
2023-04-14T14:20:13.189Z,1.05
2023-04-14T14:22:40.355Z,1.20
2023-04-14T14:25:19.412Z,1.73
2023-04-14T14:27:48.295Z,1.10
2023-04-14T14:30:15.861Z,1.25
2023-04-14T14:32:42.865Z,1.40
2023-04-14T14:35:10.509Z,1.58
2023-04-14T14:37:37.523Z,1.08
2023-04-14T14:40:05.265Z,2.42
2023-04-14T14:42:32.259Z,1.10
2023-04-14T14:44:59.738Z,1.67
2023-04-14T14:47:28.735Z,0.85
2023-04-14T14:50:01.749Z,1.33
2023-04-14T14:52:34.695Z,1.40
2023-04-14T14:55:02.387Z,1.42
2023-04-14T14:57:30.476Z,1.30
2023-04-14T14:59:57.963Z,1.25
2023-04-14T15:02:25.721Z,1.08
2023-04-14T15:04:54.019Z,1.40
2023-04-14T15:07:21.380Z,1.27
2023-04-14T15:09:50.304Z,1.42
2023-04-14T15:12:18.178Z,1.35
2023-04-14T15:14:45.176Z,1.40
2023-04-14T15:17:12.058Z,1.10
2023-04-14T15:19:39.079Z,1.02
2023-04-14T15:22:06.139Z,0.80
2023-04-14T15:24:33.056Z,1.15
2023-04-14T15:27:00.044Z,0.82
2023-04-14T15:30:07.525Z,1.30
2023-04-14T15:32:34.574Z,0.75
2023-04-14T15:35:01.561Z,1.20
2023-04-14T15:37:28.612Z,0.80
2023-04-14T15:39:55.698Z,0.93
2023-04-14T15:42:22.778Z,1.40
2023-04-14T15:44:51.233Z,1.00
2023-04-14T15:47:18.883Z,1.00
2023-04-14T15:49:49.868Z,1.02
2023-04-14T15:52:32.775Z,0.95
2023-04-14T15:54:59.705Z,1.90
2023-04-14T15:57:26.703Z,0.80
2023-04-14T15:59:53.729Z,0.95
2023-04-14T16:02:21.272Z,1.63
2023-04-14T16:04:48.496Z,1.20
2023-04-14T16:07:15.658Z,1.15
2023-04-14T16:09:42.537Z,0.90
2023-04-14T16:12:09.853Z,1.15
2023-04-14T16:14:37.662Z,1.02
2023-04-14T16:17:04.589Z,1.00
2023-04-14T16:19:31.740Z,1.35
2023-04-14T16:21:58.693Z,1.23
2023-04-14T16:24:25.947Z,1.27
2023-04-14T16:26:52.939Z,0.93
2023-04-14T16:29:19.976Z,1.42
2023-04-14T16:31:47.004Z,1.33
2023-04-14T16:34:14.590Z,1.83
2023-04-14T16:36:41.597Z,0.80
2023-04-14T16:39:08.549Z,1.20
2023-04-14T16:41:35.478Z,0.80
2023-04-14T16:44:02.696Z,0.85
2023-04-14T16:46:29.729Z,0.60
2023-04-14T16:48:56.912Z,1.05
2023-04-14T16:51:26.828Z,0.80
2023-04-14T16:53:53.951Z,0.75
2023-04-14T16:56:20.912Z,0.93
2023-04-14T16:58:48.403Z,1.15
2023-04-14T17:01:15.420Z,1.15
2023-04-14T17:03:42.829Z,1.08
2023-04-14T17:06:09.989Z,0.77
2023-04-14T17:08:36.971Z,1.20
2023-04-14T17:11:04.024Z,0.98
2023-04-14T17:13:30.982Z,0.80
2023-04-14T17:16:07.604Z,1.13
2023-04-14T17:18:36.694Z,0.80
2023-04-14T17:21:05.709Z,1.77
2023-04-14T17:23:37.185Z,0.80
2023-04-14T17:26:04.507Z,1.00
2023-04-14T17:28:33.576Z,0.70
2023-04-14T17:31:00.598Z,1.25
2023-04-14T17:33:27.662Z,1.45
2023-04-14T17:35:55.599Z,1.02
2023-04-14T17:38:23.307Z,1.50
2023-04-14T17:40:51.797Z,1.20
2023-04-14T17:43:18.814Z,1.40
2023-04-14T17:45:50.347Z,1.17
2023-04-14T17:48:18.073Z,1.30
2023-04-14T17:50:46.329Z,1.70
2023-04-14T17:53:16.410Z,1.10
2023-04-14T17:55:43.830Z,1.60
2023-04-14T17:58:10.881Z,1.75
2023-04-14T18:00:38.048Z,1.45
2023-04-14T18:03:05.246Z,0.98
2023-04-14T18:05:32.399Z,1.95
2023-04-14T18:07:59.304Z,1.95
2023-04-14T18:10:26.496Z,1.42
2023-04-14T18:12:53.394Z,1.30
2023-04-14T18:15:20.451Z,0.93
2023-04-14T18:17:47.656Z,1.77
2023-04-14T18:20:15.664Z,2.10
2023-04-14T18:22:43.277Z,1.33
2023-04-14T18:25:10.383Z,1.15
2023-04-14T18:30:08.428Z,1.25
2023-04-14T18:32:35.742Z,1.50
2023-04-14T18:35:02.779Z,0.88
2023-04-14T18:37:29.721Z,1.60
2023-04-14T18:39:56.697Z,0.77
2023-04-14T18:42:23.710Z,1.30
2023-04-14T18:44:50.664Z,1.55
2023-04-14T18:47:18.994Z,1.10
2023-04-14T18:49:46.426Z,1.70
2023-04-14T18:52:13.369Z,1.70
2023-04-14T18:54:40.359Z,1.23
2023-04-14T18:57:07.335Z,1.30
2023-04-14T18:59:34.683Z,1.50
2023-04-14T19:02:01.798Z,1.42
2023-04-14T19:04:29.460Z,1.25
2023-04-14T19:06:56.543Z,1.27
2023-04-14T19:09:24.443Z,1.38
2023-04-14T19:11:51.511Z,1.27
2023-04-14T19:14:18.573Z,1.40
2023-04-14T19:16:46.467Z,1.05
2023-04-14T19:19:13.450Z,1.17
2023-04-14T19:21:40.692Z,1.00
2023-04-14T19:24:07.656Z,0.70
2023-04-14T19:26:37.561Z,0.82
2023-04-14T19:29:04.675Z,0.90
2023-04-14T19:31:33.432Z,2.40
2023-04-14T19:34:00.553Z,0.98
2023-04-14T19:36:29.139Z,1.02
2023-04-14T19:38:57.166Z,1.40
2023-04-14T19:41:24.293Z,0.80
2023-04-14T19:43:52.189Z,0.98
2023-04-14T19:46:19.390Z,1.02
2023-04-14T19:48:46.796Z,0.85
2023-04-14T19:51:13.750Z,1.27
2023-04-14T19:53:40.964Z,0.85
2023-04-14T19:56:08.712Z,1.40
2023-04-14T19:58:36.337Z,0.68
2023-04-14T20:01:03.439Z,0.70
2023-04-14T20:03:33.073Z,1.00
2023-04-14T20:06:01.903Z,1.10
2023-04-14T20:08:30.518Z,0.60
2023-04-14T20:10:57.735Z,0.90
2023-04-14T20:13:27.560Z,1.58
2023-04-14T20:15:55.096Z,1.63
2023-04-14T20:18:26.394Z,0.82
2023-04-14T20:20:54.856Z,0.80
2023-04-14T20:23:22.811Z,0.70
2023-04-14T20:25:51.921Z,0.60
2023-04-14T20:28:20.026Z,0.90
2023-04-14T20:30:48.165Z,0.95
2023-04-14T20:33:18.346Z,1.67
2023-04-14T20:35:45.842Z,0.70
2023-04-14T20:38:15.341Z,0.73
2023-04-14T20:40:43.503Z,0.77
2023-04-14T20:43:10.528Z,0.85
2023-04-14T20:45:37.772Z,0.93
2023-04-14T20:48:06.040Z,0.70
2023-04-14T20:50:33.763Z,1.02
2023-04-14T20:53:00.716Z,0.80
2023-04-14T20:55:27.691Z,0.73
2023-04-14T20:57:54.903Z,0.90
2023-04-14T21:00:21.869Z,1.02
2023-04-14T21:02:49.343Z,0.88
2023-04-14T21:05:17.577Z,0.98
2023-04-14T21:07:45.958Z,0.95
2023-04-14T21:10:15.478Z,1.00
2023-04-14T21:15:26.868Z,0.95
2023-04-14T21:15:52.284Z,1.02
2023-04-14T21:18:17.072Z,0.70
2023-04-14T21:20:44.110Z,0.93
2023-04-14T21:23:11.271Z,1.05
2023-04-14T21:25:38.340Z,0.80
2023-04-14T21:28:05.694Z,1.02
2023-04-14T21:30:34.040Z,0.73
2023-04-14T21:33:01.116Z,1.20
2023-04-14T21:35:28.166Z,1.48
2023-04-14T21:37:55.207Z,1.42
2023-04-14T21:40:22.735Z,0.70
2023-04-14T21:42:50.664Z,0.93
2023-04-14T21:45:17.604Z,0.85
2023-04-14T21:47:44.591Z,0.65
2023-04-14T21:50:11.669Z,1.00
2023-04-14T21:52:38.673Z,1.08
2023-04-14T21:55:05.925Z,0.95
2023-04-14T21:57:43.852Z,0.85
2023-04-14T22:00:17.600Z,1.30
2023-04-14T22:02:45.655Z,0.85
2023-04-14T22:05:14.381Z,0.77
2023-04-14T22:07:41.403Z,1.20
2023-04-14T22:10:09.104Z,0.90
2023-04-14T22:12:36.168Z,1.25
2023-04-14T22:15:04.385Z,0.93
2023-04-14T22:17:31.386Z,1.30
2023-04-14T22:19:59.241Z,1.58
2023-04-14T22:22:26.800Z,0.82
2023-04-14T22:24:57.191Z,1.20
2023-04-14T22:27:24.202Z,1.10
2023-04-14T22:29:51.497Z,1.00
2023-04-14T22:32:18.402Z,0.90
2023-04-14T22:34:45.761Z,1.38
2023-04-14T22:37:12.690Z,1.20
2023-04-14T22:39:40.716Z,0.90
2023-04-14T22:42:08.535Z,1.08
2023-04-14T22:44:35.505Z,1.08
2023-04-14T22:47:03.851Z,1.25
2023-04-14T22:49:31.422Z,1.40
2023-04-14T22:51:58.387Z,1.88
2023-04-14T22:54:25.536Z,1.25
2023-04-14T22:56:53.698Z,1.08
2023-04-14T22:59:20.692Z,1.20
2023-04-14T23:01:48.375Z,1.30
2023-04-14T23:04:15.565Z,1.45
2023-04-14T23:06:42.761Z,1.38
2023-04-14T23:09:09.960Z,1.45
2023-04-14T23:11:37.470Z,1.40
2023-04-14T23:14:04.972Z,1.35
2023-04-14T23:16:32.493Z,1.25
2023-04-14T23:18:59.711Z,1.65
2023-04-14T23:21:27.532Z,1.48
2023-04-14T23:23:54.800Z,1.60
2023-04-14T23:26:22.808Z,1.35
2023-04-14T23:28:49.883Z,1.23
2023-04-14T23:31:17.453Z,1.67
2023-04-14T23:33:45.404Z,1.48
2023-04-14T23:36:13.430Z,1.63
2023-04-14T23:38:41.129Z,1.67
2023-04-14T23:41:08.153Z,3.15
2023-04-14T23:43:35.091Z,1.75
2023-04-14T23:46:02.277Z,2.00
2023-04-14T23:48:29.315Z,1.48
2023-04-14T23:51:00.690Z,1.98
2023-04-14T23:53:41.387Z,1.80
2023-04-14T23:56:08.446Z,1.75
2023-04-14T23:58:35.446Z,2.03
